KSCK/SCK METAR and TAF weather

Enter ICAO airport designator
Station Type Date Time Source
KSCK METAR 2019/04/18 09:55 UTC NOAA

KSCK 180955Z AUTO 00000KT 10SM CLR 11/09 A3013 RMK AO2 SLP203 T01060089


Station Type Date Time Source
KSCK Decoded METAR 2019/04/18 09:55 UTC NOAA

STOCKTON METROPOLITAN AIRPORT , CA, United States (KSCK) 37-54N 121-14W 10M
Apr 18, 2019 - 05:55 AM EDT / 2019.04.18 0955 UTC
Wind: Calm:0
Visibility: 10 mile(s):0
Sky conditions: clear
Temperature: 51.1 F (10.6 C)
Dew Point: 48.0 F (8.9 C)
Relative Humidity: 89%
Pressure (altimeter): 30.13 in. Hg (1020 hPa)
ob: KSCK 180955Z AUTO 00000KT 10SM CLR 11/09 A3013 RMK AO2 SLP203 T01060089
cycle: 10

Station Type Date Time Source
KSCK TAF 2019/04/18 06:22 UTC NOAA

TAF KSCK 180520Z 1806/1906 VRB05KT P6SM SKC

Example: see airport list